createdAt,value
2022-12-01T00:00:49.378Z,10.10
2022-12-01T00:06:00.573Z,10.47
2022-12-01T00:11:11.515Z,9.87
2022-12-01T00:16:15.941Z,10.77
2022-12-01T00:21:20.558Z,10.90
2022-12-01T00:26:26.262Z,9.40
2022-12-01T00:31:40.483Z,10.07
2022-12-01T00:36:45.140Z,11.03
2022-12-01T00:41:49.855Z,9.80
2022-12-01T00:47:05.697Z,10.83
2022-12-01T00:52:09.400Z,11.00
2022-12-01T00:57:14.791Z,11.20
2022-12-01T01:02:24.077Z,10.53
2022-12-01T01:07:27.699Z,10.30
2022-12-01T01:12:32.716Z,10.30
2022-12-01T01:17:36.043Z,11.17
2022-12-01T01:22:46.375Z,11.87
2022-12-01T01:27:58.013Z,10.37
2022-12-01T01:33:02.441Z,11.90
2022-12-01T01:38:14.990Z,10.77
2022-12-01T01:43:35.563Z,11.63
2022-12-01T01:48:40.789Z,11.97
2022-12-01T01:53:48.319Z,11.33
2022-12-01T01:58:54.653Z,11.93
2022-12-01T02:03:59.881Z,11.47
2022-12-01T02:09:03.288Z,11.73
2022-12-01T02:14:38.582Z,12.80
2022-12-01T02:20:00.819Z,10.70
2022-12-01T02:25:38.582Z,12.93
2022-12-01T02:31:11.105Z,13.67
2022-12-01T02:36:22.359Z,12.97
2022-12-01T02:41:48.523Z,11.93
2022-12-01T02:47:00.343Z,13.00
2022-12-01T02:52:12.848Z,12.33
2022-12-01T02:57:33.332Z,12.70
2022-12-01T03:02:49.969Z,13.00
2022-12-01T03:08:14.624Z,12.97
2022-12-01T03:13:39.886Z,12.50
2022-12-01T03:18:51.189Z,12.00
2022-12-01T03:24:05.437Z,12.67
2022-12-01T03:29:12.450Z,13.33
2022-12-01T03:34:24.285Z,12.93
2022-12-01T03:39:33.400Z,13.37
2022-12-01T03:51:12.540Z,13.97
2022-12-01T03:56:26.263Z,13.87
2022-12-01T04:01:35.644Z,12.77
2022-12-01T04:06:41.688Z,12.67
2022-12-01T04:12:33.051Z,12.40
2022-12-01T04:17:49.513Z,12.73
2022-12-01T04:22:54.456Z,12.63
2022-12-01T04:28:16.027Z,12.93
2022-12-01T04:33:46.920Z,13.13
2022-12-01T04:38:51.825Z,12.87
2022-12-01T04:43:55.878Z,13.00
2022-12-01T04:48:59.382Z,13.57
2022-12-01T04:54:06.090Z,12.80
2022-12-01T04:59:11.941Z,12.77
2022-12-01T05:04:16.589Z,12.40
2022-12-01T05:09:23.457Z,12.03
2022-12-01T05:14:26.867Z,13.10
2022-12-01T05:19:49.066Z,12.93
2022-12-01T05:24:54.110Z,13.07
2022-12-01T05:30:11.809Z,12.63
2022-12-01T05:35:37.291Z,13.00
2022-12-01T05:40:43.222Z,12.33
2022-12-01T05:45:50.168Z,11.67
2022-12-01T05:50:53.936Z,12.77
2022-12-01T05:55:58.677Z,12.87
2022-12-01T06:01:11.323Z,12.83
2022-12-01T06:06:33.663Z,13.40
2022-12-01T06:11:46.511Z,12.33
2022-12-01T06:16:52.591Z,12.30
2022-12-01T06:21:56.230Z,12.93
2022-12-01T06:27:13.527Z,12.67
2022-12-01T06:32:22.942Z,11.93
2022-12-01T06:37:26.306Z,13.10
2022-12-01T06:42:32.690Z,13.13
2022-12-01T06:47:36.255Z,17.40
2022-12-01T06:52:39.673Z,12.63
2022-12-01T06:57:45.409Z,13.40
2022-12-01T07:02:50.046Z,12.60
2022-12-01T07:07:59.183Z,12.50
2022-12-01T07:13:05.350Z,13.17
2022-12-01T07:18:10.109Z,12.73
2022-12-01T07:23:13.618Z,12.93
2022-12-01T07:28:18.620Z,13.23
2022-12-01T07:33:22.170Z,13.30
2022-12-01T07:38:25.597Z,12.20
2022-12-01T07:43:31.446Z,13.97
2022-12-01T07:48:36.654Z,12.80
2022-12-01T07:53:40.615Z,15.10
2022-12-01T07:58:49.002Z,14.20
2022-12-01T08:03:54.297Z,14.53
2022-12-01T08:08:57.936Z,14.07
2022-12-01T08:14:04.094Z,14.20
2022-12-01T08:19:07.442Z,12.70
2022-12-01T08:24:12.835Z,13.90
2022-12-01T08:29:20.550Z,12.60
2022-12-01T08:34:24.084Z,14.33
2022-12-01T08:39:27.475Z,11.27
2022-12-01T08:44:32.403Z,11.13
2022-12-01T08:49:35.824Z,12.80
2022-12-01T08:54:40.224Z,13.93
2022-12-01T08:59:45.376Z,13.57
2022-12-01T09:04:49.779Z,15.47
2022-12-01T09:09:55.076Z,14.27
2022-12-01T09:15:00.767Z,13.50
2022-12-01T09:20:05.096Z,14.97
2022-12-01T09:25:14.756Z,13.73
2022-12-01T09:30:19.883Z,14.40
2022-12-01T09:35:23.718Z,15.10
2022-12-01T09:40:35.402Z,15.37
2022-12-01T09:45:48.294Z,13.77
2022-12-01T09:50:55.758Z,14.67
2022-12-01T09:56:07.161Z,15.63
2022-12-01T10:01:24.463Z,16.13
2022-12-01T10:06:39.595Z,15.40
2022-12-01T10:11:47.272Z,14.70
2022-12-01T10:17:01.291Z,15.23
2022-12-01T10:22:23.842Z,16.83
2022-12-01T10:27:44.796Z,17.23
2022-12-01T10:32:54.377Z,15.33
2022-12-01T10:38:01.322Z,15.93
2022-12-01T10:43:04.812Z,17.00
2022-12-01T10:48:27.372Z,17.77
2022-12-01T10:53:32.227Z,17.60
2022-12-01T10:58:43.796Z,16.10
2022-12-01T11:04:08.607Z,17.27
2022-12-01T11:09:25.960Z,16.43
2022-12-01T11:14:42.288Z,15.23
2022-12-01T11:19:47.501Z,15.27
2022-12-01T11:25:05.302Z,15.80
2022-12-01T11:30:21.849Z,15.77
2022-12-01T11:35:34.603Z,14.90
2022-12-01T11:40:52.452Z,15.20
2022-12-01T11:46:00.155Z,18.50
2022-12-01T11:51:11.609Z,16.03
2022-12-01T11:56:23.547Z,19.47
2022-12-01T12:01:41.812Z,16.60
2022-12-01T12:06:56.393Z,21.63
2022-12-01T12:12:08.363Z,15.70
2022-12-01T12:17:28.090Z,14.77
2022-12-01T12:22:55.058Z,14.77
2022-12-01T12:28:19.621Z,16.17
2022-12-01T12:34:08.946Z,15.23
2022-12-01T12:39:30.490Z,14.53
2022-12-01T12:44:48.231Z,16.57
2022-12-01T12:50:00.869Z,15.77
2022-12-01T12:55:20.108Z,14.30
2022-12-01T13:00:45.374Z,14.03
2022-12-01T13:05:51.943Z,14.10
2022-12-01T13:11:11.888Z,20.17
2022-12-01T13:16:20.003Z,13.43
2022-12-01T13:21:24.656Z,13.90
2022-12-01T13:26:39.125Z,14.37
2022-12-01T13:31:45.408Z,15.70
2022-12-01T13:36:56.883Z,15.57
2022-12-01T13:42:08.362Z,14.40
2022-12-01T13:47:39.821Z,16.90
2022-12-01T13:52:50.714Z,18.40
2022-12-01T13:58:24.343Z,18.45
2022-12-01T14:03:42.089Z,14.95
2022-12-01T14:08:57.892Z,12.53
2022-12-01T14:14:11.758Z,11.97
2022-12-01T14:19:29.583Z,13.60
2022-12-01T14:24:36.451Z,12.50
2022-12-01T14:29:43.344Z,13.10
2022-12-01T14:34:47.603Z,12.23
2022-12-01T14:39:59.377Z,14.80
2022-12-01T14:45:06.638Z,15.00
2022-12-01T14:50:17.854Z,12.93
2022-12-01T14:55:27.335Z,10.90
2022-12-01T15:00:36.415Z,14.03
2022-12-01T15:05:47.891Z,14.03
2022-12-01T15:10:53.686Z,13.10
2022-12-01T15:16:02.519Z,13.03
2022-12-01T15:21:12.136Z,12.70
2022-12-01T15:26:20.082Z,13.20
2022-12-01T15:31:32.109Z,11.70
2022-12-01T15:36:45.102Z,13.10
2022-12-01T15:41:54.208Z,13.10
2022-12-01T15:47:23.756Z,11.97
2022-12-01T15:52:27.388Z,13.13
2022-12-01T15:57:33.410Z,13.00
2022-12-01T16:02:39.540Z,12.57
2022-12-01T16:08:12.609Z,11.53
2022-12-01T16:13:45.493Z,11.87
2022-12-01T16:18:56.499Z,10.47
2022-12-01T16:24:08.389Z,11.63
2022-12-01T16:29:21.161Z,13.10
2022-12-01T16:34:45.437Z,13.97
2022-12-01T16:39:54.476Z,14.87
2022-12-01T16:45:07.563Z,13.40
2022-12-01T16:50:30.398Z,13.43
2022-12-01T16:55:39.199Z,12.43
2022-12-01T17:00:42.912Z,11.60
2022-12-01T17:05:50.089Z,11.57
2022-12-01T17:10:54.241Z,12.73
2022-12-01T17:15:57.734Z,10.63
2022-12-01T17:21:04.842Z,10.37
2022-12-01T17:26:21.400Z,12.80
2022-12-01T17:31:28.131Z,11.07
2022-12-01T17:36:39.874Z,11.83
2022-12-01T17:41:43.467Z,13.33
2022-12-01T17:46:52.930Z,12.73
2022-12-01T17:52:03.966Z,12.93
2022-12-01T17:57:08.729Z,13.80
2022-12-01T18:02:15.940Z,11.70
2022-12-01T18:07:21.847Z,13.80
2022-12-01T18:12:30.962Z,13.23
2022-12-01T18:17:42.528Z,12.37
2022-12-01T18:22:47.759Z,11.67
2022-12-01T18:27:59.253Z,12.60
2022-12-01T18:33:05.257Z,12.00
2022-12-01T18:38:10.222Z,10.82
2022-12-01T18:43:13.587Z,10.33
2022-12-01T18:48:16.948Z,13.40
2022-12-01T18:53:21.915Z,12.93
2022-12-01T18:58:27.340Z,13.07
2022-12-01T19:03:32.228Z,12.67
2022-12-01T19:08:36.967Z,13.33
2022-12-01T19:13:40.318Z,13.23
2022-12-01T19:18:46.160Z,13.40
2022-12-01T19:23:51.280Z,12.80
2022-12-01T19:29:03.756Z,14.43
2022-12-01T19:34:14.320Z,13.50
2022-12-01T19:39:25.314Z,12.23
2022-12-01T19:44:36.808Z,14.07
2022-12-01T19:49:46.483Z,14.53
2022-12-01T19:54:51.627Z,15.70
2022-12-01T19:59:55.330Z,12.43
2022-12-01T20:05:01.222Z,12.97
2022-12-01T20:10:14.182Z,13.60
2022-12-01T20:15:24.016Z,14.90
2022-12-01T20:20:31.218Z,13.17
2022-12-01T20:25:38.232Z,13.50
2022-12-01T20:30:42.163Z,12.20
2022-12-01T20:35:47.910Z,11.33
2022-12-01T20:41:02.097Z,13.83
2022-12-01T20:46:06.768Z,12.07
2022-12-01T20:51:12.894Z,15.53
2022-12-01T20:56:20.505Z,11.97
2022-12-01T21:01:24.442Z,12.07
2022-12-01T21:06:29.193Z,13.37
2022-12-01T21:11:54.246Z,13.77
2022-12-01T21:17:10.886Z,11.33
2022-12-01T21:22:15.017Z,12.77
2022-12-01T21:27:20.076Z,13.17
2022-12-01T21:32:31.494Z,15.43
2022-12-01T21:37:38.471Z,14.37
2022-12-01T21:42:45.449Z,14.43
2022-12-01T21:47:56.331Z,13.67
2022-12-01T21:58:35.396Z,13.53
2022-12-01T22:03:44.890Z,13.10
2022-12-01T22:08:53.489Z,14.57
2022-12-01T22:14:10.773Z,14.37
2022-12-01T22:19:30.093Z,13.30
2022-12-01T22:24:41.478Z,13.30
2022-12-01T22:29:48.746Z,13.83
2022-12-01T22:34:55.208Z,13.40
2022-12-01T22:39:58.823Z,12.70
2022-12-01T22:45:16.008Z,10.80
2022-12-01T22:50:30.025Z,12.43
2022-12-01T22:55:41.469Z,12.93
2022-12-01T23:00:46.296Z,12.73
2022-12-01T23:05:54.783Z,13.10
2022-12-01T23:10:59.738Z,12.43
2022-12-01T23:16:07.055Z,14.13
2022-12-01T23:21:10.646Z,14.77
2022-12-01T23:26:14.171Z,12.77
2022-12-01T23:31:26.175Z,13.77
2022-12-01T23:36:34.112Z,13.73
2022-12-01T23:41:39.099Z,14.83
2022-12-01T23:46:44.187Z,15.47
2022-12-01T23:51:53.637Z,12.97
2022-12-01T23:57:00.812Z,12.43
